sensor_id;sensor_type;location;lat;lon;timestamp;P1;durP1;ratioP1;P2;durP2;ratioP2
57225;SDS011;43082;43.568;22.256;2023-02-19T00:02:06;35.40;;;22.95;;
57225;SDS011;43082;43.568;22.256;2023-02-19T00:04:31;37.25;;;22.23;;
57225;SDS011;43082;43.568;22.256;2023-02-19T00:06:57;35.38;;;19.75;;
57225;SDS011;43082;43.568;22.256;2023-02-19T00:09:22;39.22;;;24.38;;
57225;SDS011;43082;43.568;22.256;2023-02-19T00:11:47;50.90;;;29.75;;
57225;SDS011;43082;43.568;22.256;2023-02-19T00:14:14;38.35;;;23.23;;
57225;SDS011;43082;43.568;22.256;2023-02-19T00:16:41;31.20;;;19.38;;
57225;SDS011;43082;43.568;22.256;2023-02-19T00:19:07;32.00;;;19.38;;
57225;SDS011;43082;43.568;22.256;2023-02-19T00:21:36;34.60;;;22.52;;
57225;SDS011;43082;43.568;22.256;2023-02-19T00:24:02;28.85;;;18.60;;
57225;SDS011;43082;43.568;22.256;2023-02-19T00:26:29;25.42;;;15.38;;
57225;SDS011;43082;43.568;22.256;2023-02-19T00:28:54;22.13;;;14.77;;
57225;SDS011;43082;43.568;22.256;2023-02-19T00:33:50;18.13;;;10.27;;
57225;SDS011;43082;43.568;22.256;2023-02-19T00:36:19;17.20;;;10.60;;
57225;SDS011;43082;43.568;22.256;2023-02-19T00:38:45;21.00;;;11.30;;
57225;SDS011;43082;43.568;22.256;2023-02-19T00:41:12;32.08;;;20.00;;
57225;SDS011;43082;43.568;22.256;2023-02-19T00:43:48;41.15;;;26.23;;
57225;SDS011;43082;43.568;22.256;2023-02-19T00:46:33;29.63;;;18.38;;
57225;SDS011;43082;43.568;22.256;2023-02-19T00:48:59;34.58;;;23.13;;
57225;SDS011;43082;43.568;22.256;2023-02-19T00:51:26;32.00;;;20.77;;
57225;SDS011;43082;43.568;22.256;2023-02-19T00:53:54;22.42;;;14.02;;
57225;SDS011;43082;43.568;22.256;2023-02-19T00:56:19;17.65;;;10.23;;
57225;SDS011;43082;43.568;22.256;2023-02-19T00:58:45;18.20;;;10.82;;
57225;SDS011;43082;43.568;22.256;2023-02-19T01:01:11;10.80;;;6.38;;
57225;SDS011;43082;43.568;22.256;2023-02-19T01:03:37;18.55;;;9.80;;
57225;SDS011;43082;43.568;22.256;2023-02-19T01:06:03;17.38;;;9.48;;
57225;SDS011;43082;43.568;22.256;2023-02-19T01:08:30;17.25;;;9.65;;
57225;SDS011;43082;43.568;22.256;2023-02-19T01:10:56;19.67;;;10.23;;
57225;SDS011;43082;43.568;22.256;2023-02-19T01:13:22;18.33;;;10.70;;
57225;SDS011;43082;43.568;22.256;2023-02-19T01:15:47;22.95;;;13.45;;
57225;SDS011;43082;43.568;22.256;2023-02-19T01:18:13;21.27;;;13.85;;
57225;SDS011;43082;43.568;22.256;2023-02-19T01:20:39;23.13;;;13.30;;
57225;SDS011;43082;43.568;22.256;2023-02-19T01:23:06;26.25;;;12.23;;
57225;SDS011;43082;43.568;22.256;2023-02-19T01:25:31;29.38;;;17.17;;
57225;SDS011;43082;43.568;22.256;2023-02-19T01:27:57;29.10;;;18.25;;
57225;SDS011;43082;43.568;22.256;2023-02-19T01:30:22;33.60;;;20.80;;
57225;SDS011;43082;43.568;22.256;2023-02-19T01:32:47;33.17;;;19.08;;
57225;SDS011;43082;43.568;22.256;2023-02-19T01:35:13;29.92;;;16.80;;
57225;SDS011;43082;43.568;22.256;2023-02-19T01:37:38;25.05;;;15.95;;
57225;SDS011;43082;43.568;22.256;2023-02-19T01:40:04;20.17;;;13.20;;
57225;SDS011;43082;43.568;22.256;2023-02-19T01:42:29;20.60;;;11.77;;
57225;SDS011;43082;43.568;22.256;2023-02-19T01:45:14;21.08;;;12.65;;
57225;SDS011;43082;43.568;22.256;2023-02-19T01:47:46;24.05;;;15.73;;
57225;SDS011;43082;43.568;22.256;2023-02-19T01:50:16;26.17;;;16.55;;
57225;SDS011;43082;43.568;22.256;2023-02-19T01:52:41;31.27;;;17.83;;
57225;SDS011;43082;43.568;22.256;2023-02-19T01:55:06;38.60;;;22.23;;
57225;SDS011;43082;43.568;22.256;2023-02-19T01:57:36;48.08;;;25.17;;
57225;SDS011;43082;43.568;22.256;2023-02-19T02:00:07;49.47;;;28.50;;
57225;SDS011;43082;43.568;22.256;2023-02-19T02:02:34;40.42;;;22.88;;
57225;SDS011;43082;43.568;22.256;2023-02-19T02:05:00;36.17;;;18.48;;
57225;SDS011;43082;43.568;22.256;2023-02-19T02:07:25;29.17;;;16.42;;
57225;SDS011;43082;43.568;22.256;2023-02-19T02:10:09;28.90;;;16.10;;
57225;SDS011;43082;43.568;22.256;2023-02-19T02:12:47;27.25;;;16.83;;
57225;SDS011;43082;43.568;22.256;2023-02-19T02:15:14;41.80;;;25.90;;
57225;SDS011;43082;43.568;22.256;2023-02-19T02:17:55;38.15;;;24.13;;
57225;SDS011;43082;43.568;22.256;2023-02-19T02:22:58;27.60;;;16.02;;
57225;SDS011;43082;43.568;22.256;2023-02-19T02:38:16;12.70;;;7.45;;
57225;SDS011;43082;43.568;22.256;2023-02-19T02:40:43;13.18;;;6.72;;
57225;SDS011;43082;43.568;22.256;2023-02-19T02:43:09;11.20;;;6.30;;
57225;SDS011;43082;43.568;22.256;2023-02-19T02:45:35;14.18;;;6.38;;
57225;SDS011;43082;43.568;22.256;2023-02-19T02:50:40;22.33;;;14.05;;
57225;SDS011;43082;43.568;22.256;2023-02-19T02:53:10;21.10;;;12.85;;
57225;SDS011;43082;43.568;22.256;2023-02-19T02:55:58;22.13;;;14.15;;
57225;SDS011;43082;43.568;22.256;2023-02-19T02:58:24;41.08;;;26.02;;
57225;SDS011;43082;43.568;22.256;2023-02-19T03:00:53;24.50;;;14.00;;
57225;SDS011;43082;43.568;22.256;2023-02-19T03:03:41;26.50;;;14.95;;
57225;SDS011;43082;43.568;22.256;2023-02-19T03:06:07;22.02;;;11.52;;
57225;SDS011;43082;43.568;22.256;2023-02-19T03:08:47;18.30;;;10.20;;
57225;SDS011;43082;43.568;22.256;2023-02-19T03:11:16;16.83;;;9.05;;
57225;SDS011;43082;43.568;22.256;2023-02-19T03:14:05;16.30;;;7.82;;
57225;SDS011;43082;43.568;22.256;2023-02-19T03:16:54;15.98;;;9.68;;
57225;SDS011;43082;43.568;22.256;2023-02-19T03:19:41;15.27;;;8.65;;
57225;SDS011;43082;43.568;22.256;2023-02-19T03:27:56;24.23;;;13.90;;
57225;SDS011;43082;43.568;22.256;2023-02-19T03:30:23;29.30;;;15.32;;
57225;SDS011;43082;43.568;22.256;2023-02-19T03:35:26;28.65;;;17.90;;
57225;SDS011;43082;43.568;22.256;2023-02-19T03:40:29;37.17;;;23.08;;
57225;SDS011;43082;43.568;22.256;2023-02-19T03:43:02;39.42;;;25.92;;
57225;SDS011;43082;43.568;22.256;2023-02-19T03:45:47;53.40;;;30.88;;
57225;SDS011;43082;43.568;22.256;2023-02-19T03:50:56;34.53;;;22.77;;
57225;SDS011;43082;43.568;22.256;2023-02-19T03:53:28;41.60;;;26.80;;
57225;SDS011;43082;43.568;22.256;2023-02-19T04:01:31;46.03;;;28.83;;
57225;SDS011;43082;43.568;22.256;2023-02-19T04:04:06;39.33;;;22.80;;
57225;SDS011;43082;43.568;22.256;2023-02-19T04:06:36;30.65;;;20.27;;
57225;SDS011;43082;43.568;22.256;2023-02-19T04:09:03;25.88;;;13.88;;
57225;SDS011;43082;43.568;22.256;2023-02-19T04:11:30;47.22;;;21.77;;
57225;SDS011;43082;43.568;22.256;2023-02-19T04:14:08;30.85;;;16.13;;
57225;SDS011;43082;43.568;22.256;2023-02-19T04:16:36;34.25;;;18.70;;
57225;SDS011;43082;43.568;22.256;2023-02-19T04:19:07;40.55;;;21.00;;
57225;SDS011;43082;43.568;22.256;2023-02-19T04:21:37;30.33;;;18.13;;
57225;SDS011;43082;43.568;22.256;2023-02-19T04:24:05;17.92;;;10.27;;
57225;SDS011;43082;43.568;22.256;2023-02-19T04:26:34;17.48;;;10.55;;
57225;SDS011;43082;43.568;22.256;2023-02-19T04:29:00;15.85;;;9.38;;
57225;SDS011;43082;43.568;22.256;2023-02-19T04:31:26;13.35;;;8.25;;
57225;SDS011;43082;43.568;22.256;2023-02-19T04:33:54;14.05;;;8.20;;
57225;SDS011;43082;43.568;22.256;2023-02-19T04:36:19;12.23;;;8.18;;
57225;SDS011;43082;43.568;22.256;2023-02-19T04:38:44;11.25;;;7.25;;
57225;SDS011;43082;43.568;22.256;2023-02-19T04:41:10;12.75;;;7.53;;
57225;SDS011;43082;43.568;22.256;2023-02-19T04:43:35;15.07;;;8.05;;
57225;SDS011;43082;43.568;22.256;2023-02-19T04:46:01;20.67;;;9.57;;
57225;SDS011;43082;43.568;22.256;2023-02-19T04:48:27;22.88;;;13.07;;
57225;SDS011;43082;43.568;22.256;2023-02-19T04:50:52;16.38;;;9.13;;
57225;SDS011;43082;43.568;22.256;2023-02-19T04:53:18;11.27;;;6.00;;
57225;SDS011;43082;43.568;22.256;2023-02-19T04:55:43;13.73;;;7.13;;
57225;SDS011;43082;43.568;22.256;2023-02-19T04:58:09;20.08;;;9.93;;
57225;SDS011;43082;43.568;22.256;2023-02-19T05:00:34;26.80;;;16.15;;
57225;SDS011;43082;43.568;22.256;2023-02-19T05:02:59;22.63;;;14.15;;
57225;SDS011;43082;43.568;22.256;2023-02-19T05:05:25;19.75;;;12.50;;
57225;SDS011;43082;43.568;22.256;2023-02-19T05:07:50;20.38;;;11.27;;
57225;SDS011;43082;43.568;22.256;2023-02-19T05:10:16;18.60;;;12.38;;
57225;SDS011;43082;43.568;22.256;2023-02-19T05:12:41;22.92;;;13.73;;
57225;SDS011;43082;43.568;22.256;2023-02-19T05:15:07;13.90;;;7.63;;
57225;SDS011;43082;43.568;22.256;2023-02-19T05:17:32;13.15;;;6.90;;
57225;SDS011;43082;43.568;22.256;2023-02-19T05:19:58;14.30;;;7.28;;
57225;SDS011;43082;43.568;22.256;2023-02-19T05:22:23;15.60;;;9.23;;
57225;SDS011;43082;43.568;22.256;2023-02-19T05:24:49;14.77;;;8.50;;
57225;SDS011;43082;43.568;22.256;2023-02-19T05:27:14;13.50;;;7.53;;
57225;SDS011;43082;43.568;22.256;2023-02-19T05:29:40;16.83;;;11.18;;
57225;SDS011;43082;43.568;22.256;2023-02-19T05:32:05;23.48;;;13.55;;
57225;SDS011;43082;43.568;22.256;2023-02-19T05:34:30;19.52;;;11.27;;
57225;SDS011;43082;43.568;22.256;2023-02-19T05:36:56;32.55;;;22.35;;
57225;SDS011;43082;43.568;22.256;2023-02-19T05:39:21;24.35;;;16.63;;
57225;SDS011;43082;43.568;22.256;2023-02-19T05:41:47;16.90;;;11.13;;
57225;SDS011;43082;43.568;22.256;2023-02-19T05:44:12;14.57;;;9.15;;
57225;SDS011;43082;43.568;22.256;2023-02-19T05:46:37;13.82;;;8.07;;
57225;SDS011;43082;43.568;22.256;2023-02-19T05:49:03;31.25;;;18.50;;
57225;SDS011;43082;43.568;22.256;2023-02-19T05:51:28;28.40;;;17.42;;
57225;SDS011;43082;43.568;22.256;2023-02-19T05:53:54;35.10;;;22.48;;
57225;SDS011;43082;43.568;22.256;2023-02-19T05:58:48;16.60;;;9.63;;
57225;SDS011;43082;43.568;22.256;2023-02-19T06:01:17;29.70;;;18.92;;
57225;SDS011;43082;43.568;22.256;2023-02-19T06:03:44;34.90;;;22.70;;
57225;SDS011;43082;43.568;22.256;2023-02-19T06:06:12;27.80;;;17.98;;
57225;SDS011;43082;43.568;22.256;2023-02-19T06:08:38;27.88;;;17.77;;
57225;SDS011;43082;43.568;22.256;2023-02-19T06:11:04;31.70;;;20.73;;
57225;SDS011;43082;43.568;22.256;2023-02-19T06:13:29;28.35;;;17.10;;
57225;SDS011;43082;43.568;22.256;2023-02-19T06:15:54;25.70;;;15.52;;
57225;SDS011;43082;43.568;22.256;2023-02-19T06:18:20;31.20;;;16.77;;
57225;SDS011;43082;43.568;22.256;2023-02-19T06:20:45;26.30;;;15.90;;
57225;SDS011;43082;43.568;22.256;2023-02-19T06:23:11;22.38;;;14.38;;
57225;SDS011;43082;43.568;22.256;2023-02-19T06:25:36;22.02;;;13.63;;
57225;SDS011;43082;43.568;22.256;2023-02-19T06:28:01;22.98;;;14.18;;
57225;SDS011;43082;43.568;22.256;2023-02-19T06:30:27;23.42;;;14.95;;
57225;SDS011;43082;43.568;22.256;2023-02-19T06:32:52;23.88;;;14.85;;
57225;SDS011;43082;43.568;22.256;2023-02-19T06:35:18;27.85;;;17.27;;
57225;SDS011;43082;43.568;22.256;2023-02-19T06:37:48;34.20;;;22.85;;
57225;SDS011;43082;43.568;22.256;2023-02-19T06:40:14;33.70;;;21.90;;
57225;SDS011;43082;43.568;22.256;2023-02-19T06:42:39;30.05;;;19.58;;
57225;SDS011;43082;43.568;22.256;2023-02-19T06:45:05;19.65;;;11.60;;
57225;SDS011;43082;43.568;22.256;2023-02-19T06:47:31;21.88;;;14.05;;
57225;SDS011;43082;43.568;22.256;2023-02-19T06:49:57;16.52;;;9.30;;
57225;SDS011;43082;43.568;22.256;2023-02-19T06:52:22;15.80;;;9.40;;
57225;SDS011;43082;43.568;22.256;2023-02-19T06:54:48;17.13;;;8.80;;
57225;SDS011;43082;43.568;22.256;2023-02-19T06:57:13;16.30;;;9.50;;
57225;SDS011;43082;43.568;22.256;2023-02-19T06:59:39;58.58;;;41.72;;
57225;SDS011;43082;43.568;22.256;2023-02-19T07:02:04;56.92;;;40.65;;
57225;SDS011;43082;43.568;22.256;2023-02-19T07:04:29;53.58;;;39.55;;
57225;SDS011;43082;43.568;22.256;2023-02-19T07:06:55;54.80;;;41.45;;
57225;SDS011;43082;43.568;22.256;2023-02-19T07:09:20;49.38;;;36.00;;
57225;SDS011;43082;43.568;22.256;2023-02-19T07:11:47;27.73;;;18.80;;
57225;SDS011;43082;43.568;22.256;2023-02-19T07:14:13;19.70;;;14.55;;
57225;SDS011;43082;43.568;22.256;2023-02-19T07:16:39;12.82;;;7.90;;
57225;SDS011;43082;43.568;22.256;2023-02-19T07:19:05;17.45;;;10.35;;
57225;SDS011;43082;43.568;22.256;2023-02-19T07:21:30;17.80;;;10.20;;
57225;SDS011;43082;43.568;22.256;2023-02-19T07:23:56;16.58;;;10.68;;
57225;SDS011;43082;43.568;22.256;2023-02-19T07:26:21;18.42;;;10.38;;
57225;SDS011;43082;43.568;22.256;2023-02-19T07:28:48;22.60;;;15.82;;
57225;SDS011;43082;43.568;22.256;2023-02-19T07:31:15;20.45;;;14.27;;
57225;SDS011;43082;43.568;22.256;2023-02-19T07:33:44;76.95;;;48.85;;
57225;SDS011;43082;43.568;22.256;2023-02-19T07:36:10;55.63;;;41.20;;
57225;SDS011;43082;43.568;22.256;2023-02-19T07:38:36;31.23;;;21.52;;
57225;SDS011;43082;43.568;22.256;2023-02-19T07:41:03;30.17;;;23.45;;
57225;SDS011;43082;43.568;22.256;2023-02-19T07:43:30;17.77;;;11.00;;
57225;SDS011;43082;43.568;22.256;2023-02-19T07:45:57;15.55;;;8.52;;
57225;SDS011;43082;43.568;22.256;2023-02-19T07:48:22;15.90;;;10.05;;
57225;SDS011;43082;43.568;22.256;2023-02-19T07:50:52;14.80;;;9.18;;
57225;SDS011;43082;43.568;22.256;2023-02-19T07:53:21;13.60;;;9.63;;
57225;SDS011;43082;43.568;22.256;2023-02-19T07:55:47;11.45;;;7.40;;
57225;SDS011;43082;43.568;22.256;2023-02-19T07:58:13;12.13;;;6.95;;
57225;SDS011;43082;43.568;22.256;2023-02-19T08:00:39;17.77;;;9.40;;
57225;SDS011;43082;43.568;22.256;2023-02-19T08:03:04;13.75;;;6.90;;
57225;SDS011;43082;43.568;22.256;2023-02-19T08:05:31;12.45;;;7.53;;
57225;SDS011;43082;43.568;22.256;2023-02-19T08:08:07;10.82;;;6.65;;
57225;SDS011;43082;43.568;22.256;2023-02-19T08:10:34;15.95;;;8.90;;
57225;SDS011;43082;43.568;22.256;2023-02-19T08:13:18;21.03;;;12.97;;
57225;SDS011;43082;43.568;22.256;2023-02-19T08:15:46;33.03;;;23.33;;
57225;SDS011;43082;43.568;22.256;2023-02-19T08:18:15;34.88;;;23.73;;
57225;SDS011;43082;43.568;22.256;2023-02-19T08:20:42;25.80;;;16.40;;
57225;SDS011;43082;43.568;22.256;2023-02-19T08:23:08;23.65;;;16.58;;
57225;SDS011;43082;43.568;22.256;2023-02-19T08:25:34;22.02;;;14.27;;
57225;SDS011;43082;43.568;22.256;2023-02-19T08:28:00;20.42;;;13.20;;
57225;SDS011;43082;43.568;22.256;2023-02-19T08:30:26;25.08;;;17.48;;
57225;SDS011;43082;43.568;22.256;2023-02-19T08:32:52;19.10;;;11.88;;
57225;SDS011;43082;43.568;22.256;2023-02-19T08:35:18;23.35;;;13.82;;
57225;SDS011;43082;43.568;22.256;2023-02-19T08:37:43;26.92;;;17.50;;
57225;SDS011;43082;43.568;22.256;2023-02-19T08:40:09;22.30;;;13.73;;
57225;SDS011;43082;43.568;22.256;2023-02-19T08:42:35;14.55;;;9.90;;
57225;SDS011;43082;43.568;22.256;2023-02-19T08:45:01;19.08;;;12.23;;
57225;SDS011;43082;43.568;22.256;2023-02-19T08:47:26;20.65;;;10.65;;
57225;SDS011;43082;43.568;22.256;2023-02-19T08:49:52;18.02;;;11.20;;
57225;SDS011;43082;43.568;22.256;2023-02-19T08:52:17;23.60;;;11.65;;
57225;SDS011;43082;43.568;22.256;2023-02-19T08:54:42;17.42;;;10.02;;
57225;SDS011;43082;43.568;22.256;2023-02-19T08:57:08;12.15;;;8.15;;
57225;SDS011;43082;43.568;22.256;2023-02-19T08:59:33;21.33;;;12.98;;
57225;SDS011;43082;43.568;22.256;2023-02-19T09:01:58;24.80;;;18.63;;
57225;SDS011;43082;43.568;22.256;2023-02-19T09:04:24;28.10;;;19.48;;
57225;SDS011;43082;43.568;22.256;2023-02-19T09:06:49;33.95;;;28.95;;
57225;SDS011;43082;43.568;22.256;2023-02-19T09:09:15;24.15;;;16.17;;
57225;SDS011;43082;43.568;22.256;2023-02-19T09:11:40;22.10;;;15.48;;
57225;SDS011;43082;43.568;22.256;2023-02-19T09:14:06;22.77;;;13.60;;
57225;SDS011;43082;43.568;22.256;2023-02-19T09:16:35;14.98;;;10.68;;
57225;SDS011;43082;43.568;22.256;2023-02-19T09:19:01;16.02;;;10.75;;
57225;SDS011;43082;43.568;22.256;2023-02-19T09:21:27;15.52;;;10.98;;
57225;SDS011;43082;43.568;22.256;2023-02-19T09:23:52;15.10;;;8.18;;
57225;SDS011;43082;43.568;22.256;2023-02-19T09:26:17;20.98;;;14.00;;
57225;SDS011;43082;43.568;22.256;2023-02-19T09:28:43;16.20;;;10.82;;
57225;SDS011;43082;43.568;22.256;2023-02-19T09:31:10;16.27;;;11.05;;
57225;SDS011;43082;43.568;22.256;2023-02-19T09:33:40;13.38;;;9.20;;
57225;SDS011;43082;43.568;22.256;2023-02-19T09:36:06;10.05;;;6.20;;
57225;SDS011;43082;43.568;22.256;2023-02-19T09:38:31;17.85;;;11.55;;
57225;SDS011;43082;43.568;22.256;2023-02-19T09:40:57;20.48;;;11.35;;
57225;SDS011;43082;43.568;22.256;2023-02-19T09:43:23;24.13;;;15.07;;
57225;SDS011;43082;43.568;22.256;2023-02-19T09:45:53;16.65;;;11.38;;
57225;SDS011;43082;43.568;22.256;2023-02-19T09:48:43;15.75;;;10.50;;
57225;SDS011;43082;43.568;22.256;2023-02-19T09:51:09;14.23;;;8.20;;
57225;SDS011;43082;43.568;22.256;2023-02-19T09:53:42;13.25;;;7.78;;
57225;SDS011;43082;43.568;22.256;2023-02-19T09:56:08;16.27;;;8.98;;
57225;SDS011;43082;43.568;22.256;2023-02-19T09:58:34;9.75;;;5.35;;
57225;SDS011;43082;43.568;22.256;2023-02-19T10:01:05;19.60;;;12.25;;
57225;SDS011;43082;43.568;22.256;2023-02-19T10:03:36;19.40;;;10.95;;
57225;SDS011;43082;43.568;22.256;2023-02-19T10:06:06;14.23;;;7.15;;
57225;SDS011;43082;43.568;22.256;2023-02-19T10:08:35;9.90;;;6.13;;
57225;SDS011;43082;43.568;22.256;2023-02-19T10:11:02;17.05;;;9.85;;
57225;SDS011;43082;43.568;22.256;2023-02-19T10:13:33;13.40;;;7.85;;
57225;SDS011;43082;43.568;22.256;2023-02-19T10:16:01;18.73;;;11.65;;
57225;SDS011;43082;43.568;22.256;2023-02-19T10:18:29;16.27;;;10.23;;
57225;SDS011;43082;43.568;22.256;2023-02-19T10:21:00;14.27;;;8.23;;
57225;SDS011;43082;43.568;22.256;2023-02-19T10:23:26;12.90;;;7.85;;
57225;SDS011;43082;43.568;22.256;2023-02-19T10:25:53;17.13;;;10.93;;
57225;SDS011;43082;43.568;22.256;2023-02-19T10:28:27;12.88;;;8.07;;
57225;SDS011;43082;43.568;22.256;2023-02-19T10:30:55;13.25;;;7.13;;
57225;SDS011;43082;43.568;22.256;2023-02-19T10:33:22;13.32;;;8.73;;
57225;SDS011;43082;43.568;22.256;2023-02-19T10:36:48;14.48;;;8.13;;
57225;SDS011;43082;43.568;22.256;2023-02-19T10:39:02;13.82;;;8.48;;
57225;SDS011;43082;43.568;22.256;2023-02-19T10:41:50;11.35;;;6.78;;
57225;SDS011;43082;43.568;22.256;2023-02-19T10:44:23;13.48;;;6.90;;
57225;SDS011;43082;43.568;22.256;2023-02-19T10:46:52;13.15;;;7.15;;
57225;SDS011;43082;43.568;22.256;2023-02-19T10:49:23;12.52;;;7.18;;
57225;SDS011;43082;43.568;22.256;2023-02-19T10:52:00;13.18;;;6.90;;
57225;SDS011;43082;43.568;22.256;2023-02-19T10:54:32;12.77;;;6.22;;
57225;SDS011;43082;43.568;22.256;2023-02-19T10:59:53;13.13;;;7.60;;
57225;SDS011;43082;43.568;22.256;2023-02-19T11:02:23;14.27;;;8.18;;
57225;SDS011;43082;43.568;22.256;2023-02-19T11:07:33;13.52;;;7.63;;
57225;SDS011;43082;43.568;22.256;2023-02-19T11:09:59;9.68;;;5.22;;
57225;SDS011;43082;43.568;22.256;2023-02-19T11:12:31;12.30;;;6.07;;
57225;SDS011;43082;43.568;22.256;2023-02-19T11:15:40;11.32;;;4.97;;
57225;SDS011;43082;43.568;22.256;2023-02-19T11:17:55;14.52;;;7.05;;
57225;SDS011;43082;43.568;22.256;2023-02-19T11:20:22;11.48;;;6.55;;
57225;SDS011;43082;43.568;22.256;2023-02-19T11:22:47;16.42;;;9.30;;
57225;SDS011;43082;43.568;22.256;2023-02-19T11:28:22;12.57;;;8.00;;
57225;SDS011;43082;43.568;22.256;2023-02-19T11:30:36;11.93;;;7.15;;
57225;SDS011;43082;43.568;22.256;2023-02-19T11:36:03;12.15;;;7.20;;
57225;SDS011;43082;43.568;22.256;2023-02-19T11:38:49;10.00;;;6.38;;
57225;SDS011;43082;43.568;22.256;2023-02-19T11:46:39;11.40;;;7.20;;
57225;SDS011;43082;43.568;22.256;2023-02-19T11:49:25;12.00;;;6.82;;
57225;SDS011;43082;43.568;22.256;2023-02-19T11:52:09;14.40;;;6.45;;
57225;SDS011;43082;43.568;22.256;2023-02-19T11:54:48;13.43;;;8.15;;
57225;SDS011;43082;43.568;22.256;2023-02-19T12:27:45;17.25;;;9.80;;
57225;SDS011;43082;43.568;22.256;2023-02-19T12:30:28;19.13;;;10.65;;
57225;SDS011;43082;43.568;22.256;2023-02-19T12:36:20;20.63;;;13.30;;
57225;SDS011;43082;43.568;22.256;2023-02-19T12:44:50;17.35;;;11.35;;
57225;SDS011;43082;43.568;22.256;2023-02-19T12:47:19;12.55;;;7.20;;
57225;SDS011;43082;43.568;22.256;2023-02-19T12:49:49;12.57;;;6.80;;
57225;SDS011;43082;43.568;22.256;2023-02-19T12:52:27;11.57;;;5.90;;
57225;SDS011;43082;43.568;22.256;2023-02-19T12:54:59;13.60;;;8.32;;
57225;SDS011;43082;43.568;22.256;2023-02-19T12:57:37;15.10;;;8.57;;
57225;SDS011;43082;43.568;22.256;2023-02-19T13:07:43;16.85;;;7.05;;
57225;SDS011;43082;43.568;22.256;2023-02-19T13:10:42;26.30;;;15.07;;
57225;SDS011;43082;43.568;22.256;2023-02-19T13:13:21;31.85;;;18.77;;
57225;SDS011;43082;43.568;22.256;2023-02-19T13:15:51;17.02;;;10.60;;
57225;SDS011;43082;43.568;22.256;2023-02-19T13:18:42;17.15;;;9.07;;
57225;SDS011;43082;43.568;22.256;2023-02-19T13:21:15;17.63;;;9.23;;
57225;SDS011;43082;43.568;22.256;2023-02-19T13:24:02;24.02;;;10.77;;
57225;SDS011;43082;43.568;22.256;2023-02-19T13:37:41;14.05;;;9.07;;
57225;SDS011;43082;43.568;22.256;2023-02-19T13:42:55;26.98;;;17.77;;
57225;SDS011;43082;43.568;22.256;2023-02-19T13:45:39;16.73;;;9.02;;
57225;SDS011;43082;43.568;22.256;2023-02-19T14:04:40;18.27;;;11.82;;
57225;SDS011;43082;43.568;22.256;2023-02-19T14:17:24;15.68;;;8.75;;
57225;SDS011;43082;43.568;22.256;2023-02-19T14:25:29;17.23;;;10.02;;
57225;SDS011;43082;43.568;22.256;2023-02-19T14:28:30;20.50;;;10.38;;
57225;SDS011;43082;43.568;22.256;2023-02-19T14:31:10;18.30;;;10.20;;
57225;SDS011;43082;43.568;22.256;2023-02-19T14:33:47;14.43;;;8.90;;
57225;SDS011;43082;43.568;22.256;2023-02-19T14:36:19;15.30;;;8.88;;
57225;SDS011;43082;43.568;22.256;2023-02-19T14:38:58;20.88;;;11.73;;
57225;SDS011;43082;43.568;22.256;2023-02-19T14:41:25;18.23;;;10.97;;
57225;SDS011;43082;43.568;22.256;2023-02-19T14:43:54;15.80;;;8.80;;
57225;SDS011;43082;43.568;22.256;2023-02-19T14:46:26;20.63;;;12.00;;
57225;SDS011;43082;43.568;22.256;2023-02-19T14:49:06;22.60;;;13.60;;
57225;SDS011;43082;43.568;22.256;2023-02-19T14:51:38;18.27;;;10.70;;
57225;SDS011;43082;43.568;22.256;2023-02-19T14:54:39;20.33;;;13.18;;
57225;SDS011;43082;43.568;22.256;2023-02-19T14:57:18;14.15;;;9.05;;
57225;SDS011;43082;43.568;22.256;2023-02-19T15:02:25;22.65;;;12.85;;
57225;SDS011;43082;43.568;22.256;2023-02-19T15:04:51;18.23;;;8.52;;
57225;SDS011;43082;43.568;22.256;2023-02-19T15:07:21;18.42;;;10.32;;
57225;SDS011;43082;43.568;22.256;2023-02-19T15:09:50;20.25;;;10.43;;
57225;SDS011;43082;43.568;22.256;2023-02-19T15:12:19;18.65;;;11.10;;
57225;SDS011;43082;43.568;22.256;2023-02-19T15:14:46;20.13;;;11.15;;
57225;SDS011;43082;43.568;22.256;2023-02-19T15:17:26;19.85;;;11.10;;
57225;SDS011;43082;43.568;22.256;2023-02-19T15:19:53;21.80;;;13.38;;
57225;SDS011;43082;43.568;22.256;2023-02-19T15:22:20;25.52;;;16.17;;
57225;SDS011;43082;43.568;22.256;2023-02-19T15:24:47;25.83;;;15.75;;
57225;SDS011;43082;43.568;22.256;2023-02-19T15:27:19;31.08;;;18.15;;
57225;SDS011;43082;43.568;22.256;2023-02-19T15:29:47;35.35;;;22.63;;
57225;SDS011;43082;43.568;22.256;2023-02-19T15:32:15;24.83;;;15.10;;
57225;SDS011;43082;43.568;22.256;2023-02-19T15:34:57;28.63;;;17.63;;
57225;SDS011;43082;43.568;22.256;2023-02-19T15:37:24;24.92;;;15.13;;
57225;SDS011;43082;43.568;22.256;2023-02-19T15:39:52;27.75;;;15.90;;
57225;SDS011;43082;43.568;22.256;2023-02-19T15:42:28;30.88;;;18.75;;
57225;SDS011;43082;43.568;22.256;2023-02-19T15:47:29;32.22;;;18.25;;
57225;SDS011;43082;43.568;22.256;2023-02-19T15:52:46;29.02;;;19.67;;
57225;SDS011;43082;43.568;22.256;2023-02-19T15:57:47;31.13;;;20.92;;
57225;SDS011;43082;43.568;22.256;2023-02-19T16:00:31;30.80;;;21.48;;
57225;SDS011;43082;43.568;22.256;2023-02-19T16:03:15;34.10;;;22.48;;
57225;SDS011;43082;43.568;22.256;2023-02-19T16:05:45;39.22;;;25.67;;
57225;SDS011;43082;43.568;22.256;2023-02-19T16:08:27;36.97;;;23.60;;
57225;SDS011;43082;43.568;22.256;2023-02-19T16:10:55;50.33;;;26.77;;
57225;SDS011;43082;43.568;22.256;2023-02-19T16:13:22;43.83;;;29.33;;
57225;SDS011;43082;43.568;22.256;2023-02-19T16:15:56;51.90;;;33.90;;
57225;SDS011;43082;43.568;22.256;2023-02-19T16:18:55;59.90;;;39.45;;
57225;SDS011;43082;43.568;22.256;2023-02-19T16:21:21;63.38;;;40.85;;
57225;SDS011;43082;43.568;22.256;2023-02-19T16:23:49;71.82;;;47.22;;
57225;SDS011;43082;43.568;22.256;2023-02-19T16:26:18;74.13;;;47.30;;
57225;SDS011;43082;43.568;22.256;2023-02-19T16:28:44;86.60;;;48.70;;
57225;SDS011;43082;43.568;22.256;2023-02-19T16:31:15;83.20;;;47.45;;
57225;SDS011;43082;43.568;22.256;2023-02-19T16:33:43;94.53;;;58.55;;
57225;SDS011;43082;43.568;22.256;2023-02-19T16:38:40;138.45;;;88.85;;
57225;SDS011;43082;43.568;22.256;2023-02-19T16:41:09;157.30;;;101.22;;
57225;SDS011;43082;43.568;22.256;2023-02-19T16:43:37;150.30;;;93.95;;
57225;SDS011;43082;43.568;22.256;2023-02-19T16:46:10;159.60;;;106.32;;
57225;SDS011;43082;43.568;22.256;2023-02-19T16:48:36;216.85;;;138.73;;
57225;SDS011;43082;43.568;22.256;2023-02-19T16:51:03;192.98;;;125.00;;
57225;SDS011;43082;43.568;22.256;2023-02-19T16:53:30;181.82;;;116.53;;
57225;SDS011;43082;43.568;22.256;2023-02-19T16:55:57;66.43;;;43.10;;
57225;SDS011;43082;43.568;22.256;2023-02-19T16:58:23;34.00;;;18.67;;
57225;SDS011;43082;43.568;22.256;2023-02-19T17:00:49;21.13;;;12.57;;
57225;SDS011;43082;43.568;22.256;2023-02-19T17:03:16;16.80;;;10.70;;
57225;SDS011;43082;43.568;22.256;2023-02-19T17:05:43;21.55;;;10.82;;
57225;SDS011;43082;43.568;22.256;2023-02-19T17:10:55;27.05;;;16.67;;
57225;SDS011;43082;43.568;22.256;2023-02-19T17:13:21;23.98;;;14.35;;
57225;SDS011;43082;43.568;22.256;2023-02-19T17:15:47;35.60;;;24.33;;